sensor_id;sensor_type;location;lat;lon;timestamp;P1;durP1;ratioP1;P2;durP2;ratioP2
10092;SDS011;5085;48.092;11.484;2022-12-05T00:02:16;10.25;;;3.97;;
10092;SDS011;5085;48.092;11.484;2022-12-05T00:04:42;7.53;;;3.60;;
10092;SDS011;5085;48.092;11.484;2022-12-05T00:07:08;10.48;;;4.18;;
10092;SDS011;5085;48.092;11.484;2022-12-05T00:09:34;12.00;;;4.65;;
10092;SDS011;5085;48.092;11.484;2022-12-05T00:12:00;9.45;;;4.57;;
10092;SDS011;5085;48.092;11.484;2022-12-05T00:14:26;8.82;;;3.90;;
10092;SDS011;5085;48.092;11.484;2022-12-05T00:16:52;10.52;;;4.38;;
10092;SDS011;5085;48.092;11.484;2022-12-05T00:19:18;9.70;;;4.90;;
10092;SDS011;5085;48.092;11.484;2022-12-05T00:21:44;10.93;;;4.15;;
10092;SDS011;5085;48.092;11.484;2022-12-05T00:24:12;11.52;;;5.00;;
10092;SDS011;5085;48.092;11.484;2022-12-05T00:26:40;9.02;;;3.95;;
10092;SDS011;5085;48.092;11.484;2022-12-05T00:29:06;12.15;;;4.30;;
10092;SDS011;5085;48.092;11.484;2022-12-05T00:31:32;8.95;;;3.60;;
10092;SDS011;5085;48.092;11.484;2022-12-05T00:33:59;9.18;;;3.97;;
10092;SDS011;5085;48.092;11.484;2022-12-05T00:36:27;16.15;;;5.38;;
10092;SDS011;5085;48.092;11.484;2022-12-05T00:38:57;8.40;;;4.03;;
10092;SDS011;5085;48.092;11.484;2022-12-05T00:41:25;9.40;;;4.20;;
10092;SDS011;5085;48.092;11.484;2022-12-05T00:43:53;9.25;;;4.72;;
10092;SDS011;5085;48.092;11.484;2022-12-05T00:46:21;12.65;;;4.18;;
10092;SDS011;5085;48.092;11.484;2022-12-05T00:48:49;9.25;;;4.35;;
10092;SDS011;5085;48.092;11.484;2022-12-05T00:51:21;10.82;;;4.80;;
10092;SDS011;5085;48.092;11.484;2022-12-05T00:53:53;10.82;;;4.57;;
10092;SDS011;5085;48.092;11.484;2022-12-05T00:56:21;12.27;;;5.57;;
10092;SDS011;5085;48.092;11.484;2022-12-05T00:58:48;9.15;;;4.47;;
10092;SDS011;5085;48.092;11.484;2022-12-05T01:01:18;8.80;;;4.85;;
10092;SDS011;5085;48.092;11.484;2022-12-05T01:03:50;11.63;;;5.22;;
10092;SDS011;5085;48.092;11.484;2022-12-05T01:06:18;15.15;;;5.85;;
10092;SDS011;5085;48.092;11.484;2022-12-05T01:08:44;10.27;;;4.53;;
10092;SDS011;5085;48.092;11.484;2022-12-05T01:11:11;9.70;;;4.00;;
10092;SDS011;5085;48.092;11.484;2022-12-05T01:13:39;9.52;;;4.57;;
10092;SDS011;5085;48.092;11.484;2022-12-05T01:16:06;10.68;;;4.97;;
10092;SDS011;5085;48.092;11.484;2022-12-05T01:18:38;11.05;;;4.93;;
10092;SDS011;5085;48.092;11.484;2022-12-05T01:21:04;10.50;;;4.63;;
10092;SDS011;5085;48.092;11.484;2022-12-05T01:23:31;11.77;;;4.85;;
10092;SDS011;5085;48.092;11.484;2022-12-05T01:25:57;9.70;;;4.22;;
10092;SDS011;5085;48.092;11.484;2022-12-05T01:28:23;11.35;;;5.22;;
10092;SDS011;5085;48.092;11.484;2022-12-05T01:30:49;11.98;;;4.88;;
10092;SDS011;5085;48.092;11.484;2022-12-05T01:33:15;12.20;;;5.22;;
10092;SDS011;5085;48.092;11.484;2022-12-05T01:35:42;14.13;;;5.15;;
10092;SDS011;5085;48.092;11.484;2022-12-05T01:38:09;13.20;;;4.43;;
10092;SDS011;5085;48.092;11.484;2022-12-05T01:40:36;8.23;;;4.78;;
10092;SDS011;5085;48.092;11.484;2022-12-05T01:43:02;11.30;;;4.95;;
10092;SDS011;5085;48.092;11.484;2022-12-05T01:45:31;15.88;;;5.80;;
10092;SDS011;5085;48.092;11.484;2022-12-05T01:48:01;9.43;;;5.07;;
10092;SDS011;5085;48.092;11.484;2022-12-05T01:50:30;12.88;;;5.03;;
10092;SDS011;5085;48.092;11.484;2022-12-05T01:52:58;13.88;;;5.50;;
10092;SDS011;5085;48.092;11.484;2022-12-05T01:55:24;12.30;;;5.13;;
10092;SDS011;5085;48.092;11.484;2022-12-05T01:57:50;10.15;;;4.72;;
10092;SDS011;5085;48.092;11.484;2022-12-05T02:00:17;9.30;;;4.95;;
10092;SDS011;5085;48.092;11.484;2022-12-05T02:02:51;10.88;;;4.40;;
10092;SDS011;5085;48.092;11.484;2022-12-05T02:05:31;13.93;;;5.30;;
10092;SDS011;5085;48.092;11.484;2022-12-05T02:07:59;12.48;;;5.43;;
10092;SDS011;5085;48.092;11.484;2022-12-05T02:10:29;10.88;;;4.93;;
10092;SDS011;5085;48.092;11.484;2022-12-05T02:12:58;11.48;;;4.80;;
10092;SDS011;5085;48.092;11.484;2022-12-05T02:15:39;11.23;;;4.75;;
10092;SDS011;5085;48.092;11.484;2022-12-05T02:21:13;10.55;;;5.20;;
10092;SDS011;5085;48.092;11.484;2022-12-05T02:27:06;11.00;;;5.05;;
10092;SDS011;5085;48.092;11.484;2022-12-05T02:29:59;10.73;;;4.93;;
10092;SDS011;5085;48.092;11.484;2022-12-05T02:32:35;11.23;;;5.60;;
10092;SDS011;5085;48.092;11.484;2022-12-05T02:37:51;14.20;;;4.85;;
10092;SDS011;5085;48.092;11.484;2022-12-05T02:40:28;11.65;;;4.72;;
10092;SDS011;5085;48.092;11.484;2022-12-05T02:43:02;11.70;;;4.93;;
10092;SDS011;5085;48.092;11.484;2022-12-05T02:45:35;13.18;;;5.47;;
10092;SDS011;5085;48.092;11.484;2022-12-05T02:48:03;13.38;;;5.60;;
10092;SDS011;5085;48.092;11.484;2022-12-05T02:50:32;11.15;;;5.95;;
10092;SDS011;5085;48.092;11.484;2022-12-05T02:53:02;9.10;;;4.75;;
10092;SDS011;5085;48.092;11.484;2022-12-05T02:55:32;13.82;;;5.65;;
10092;SDS011;5085;48.092;11.484;2022-12-05T02:58:00;10.30;;;5.30;;
10092;SDS011;5085;48.092;11.484;2022-12-05T03:00:30;10.15;;;4.82;;
10092;SDS011;5085;48.092;11.484;2022-12-05T03:02:59;11.63;;;4.95;;
10092;SDS011;5085;48.092;11.484;2022-12-05T03:05:39;9.80;;;5.03;;
10092;SDS011;5085;48.092;11.484;2022-12-05T03:08:13;13.05;;;4.82;;
10092;SDS011;5085;48.092;11.484;2022-12-05T03:10:46;12.35;;;5.75;;
10092;SDS011;5085;48.092;11.484;2022-12-05T03:13:15;13.43;;;4.22;;
10092;SDS011;5085;48.092;11.484;2022-12-05T03:15:47;11.57;;;5.13;;
10092;SDS011;5085;48.092;11.484;2022-12-05T03:21:32;10.25;;;4.38;;
10092;SDS011;5085;48.092;11.484;2022-12-05T03:23:41;14.20;;;4.43;;
10092;SDS011;5085;48.092;11.484;2022-12-05T03:26:15;10.02;;;4.35;;
10092;SDS011;5085;48.092;11.484;2022-12-05T03:28:59;9.30;;;4.13;;
10092;SDS011;5085;48.092;11.484;2022-12-05T03:31:55;11.98;;;4.45;;
10092;SDS011;5085;48.092;11.484;2022-12-05T03:37:19;10.90;;;4.75;;
10092;SDS011;5085;48.092;11.484;2022-12-05T03:40:10;11.30;;;5.03;;
10092;SDS011;5085;48.092;11.484;2022-12-05T03:42:57;14.15;;;5.53;;
10092;SDS011;5085;48.092;11.484;2022-12-05T03:45:30;10.13;;;5.25;;
10092;SDS011;5085;48.092;11.484;2022-12-05T03:48:39;9.00;;;4.63;;
10092;SDS011;5085;48.092;11.484;2022-12-05T03:51:13;10.43;;;5.07;;
10092;SDS011;5085;48.092;11.484;2022-12-05T03:54:17;13.15;;;5.05;;
10092;SDS011;5085;48.092;11.484;2022-12-05T03:56:46;10.65;;;4.72;;
10092;SDS011;5085;48.092;11.484;2022-12-05T03:59:26;9.07;;;4.70;;
10092;SDS011;5085;48.092;11.484;2022-12-05T04:02:00;13.75;;;5.82;;
10092;SDS011;5085;48.092;11.484;2022-12-05T04:04:33;8.32;;;4.50;;
10092;SDS011;5085;48.092;11.484;2022-12-05T04:07:05;9.77;;;3.95;;
10092;SDS011;5085;48.092;11.484;2022-12-05T04:09:35;9.50;;;3.47;;
10092;SDS011;5085;48.092;11.484;2022-12-05T04:12:07;7.05;;;3.22;;
10092;SDS011;5085;48.092;11.484;2022-12-05T04:14:46;8.02;;;4.18;;
10092;SDS011;5085;48.092;11.484;2022-12-05T04:20:01;9.07;;;4.75;;
10092;SDS011;5085;48.092;11.484;2022-12-05T04:22:50;7.30;;;3.47;;
10092;SDS011;5085;48.092;11.484;2022-12-05T04:25:16;8.38;;;4.40;;
10092;SDS011;5085;48.092;11.484;2022-12-05T04:30:45;9.13;;;4.28;;
10092;SDS011;5085;48.092;11.484;2022-12-05T04:33:45;6.13;;;3.65;;
10092;SDS011;5085;48.092;11.484;2022-12-05T04:39:09;8.63;;;3.50;;
10092;SDS011;5085;48.092;11.484;2022-12-05T04:41:43;8.88;;;4.50;;
10092;SDS011;5085;48.092;11.484;2022-12-05T04:44:16;10.48;;;4.32;;
10092;SDS011;5085;48.092;11.484;2022-12-05T04:46:48;8.60;;;4.10;;
10092;SDS011;5085;48.092;11.484;2022-12-05T04:49:21;11.15;;;3.95;;
10092;SDS011;5085;48.092;11.484;2022-12-05T04:51:51;7.70;;;3.40;;
10092;SDS011;5085;48.092;11.484;2022-12-05T04:54:23;9.68;;;4.95;;
10092;SDS011;5085;48.092;11.484;2022-12-05T04:56:54;9.25;;;4.32;;
10092;SDS011;5085;48.092;11.484;2022-12-05T04:59:30;9.73;;;4.55;;
10092;SDS011;5085;48.092;11.484;2022-12-05T05:01:57;7.65;;;3.88;;
10092;SDS011;5085;48.092;11.484;2022-12-05T05:04:34;9.23;;;4.38;;
10092;SDS011;5085;48.092;11.484;2022-12-05T05:07:10;10.02;;;4.57;;
10092;SDS011;5085;48.092;11.484;2022-12-05T05:09:38;9.05;;;4.15;;
10092;SDS011;5085;48.092;11.484;2022-12-05T05:12:04;10.85;;;4.30;;
10092;SDS011;5085;48.092;11.484;2022-12-05T05:14:31;9.55;;;4.10;;
10092;SDS011;5085;48.092;11.484;2022-12-05T05:16:57;11.20;;;4.50;;
10092;SDS011;5085;48.092;11.484;2022-12-05T05:19:23;10.90;;;4.47;;
10092;SDS011;5085;48.092;11.484;2022-12-05T05:21:49;10.25;;;4.40;;
10092;SDS011;5085;48.092;11.484;2022-12-05T05:24:16;11.57;;;4.65;;
10092;SDS011;5085;48.092;11.484;2022-12-05T05:26:44;14.82;;;4.82;;
10092;SDS011;5085;48.092;11.484;2022-12-05T05:29:11;11.05;;;4.07;;
10092;SDS011;5085;48.092;11.484;2022-12-05T05:31:38;11.00;;;4.72;;
10092;SDS011;5085;48.092;11.484;2022-12-05T05:34:05;9.85;;;4.47;;
10092;SDS011;5085;48.092;11.484;2022-12-05T05:36:31;8.98;;;4.50;;
10092;SDS011;5085;48.092;11.484;2022-12-05T05:38:58;9.07;;;5.05;;
10092;SDS011;5085;48.092;11.484;2022-12-05T05:41:30;9.77;;;4.43;;
10092;SDS011;5085;48.092;11.484;2022-12-05T05:43:58;12.65;;;4.93;;
10092;SDS011;5085;48.092;11.484;2022-12-05T05:46:25;16.33;;;5.05;;
10092;SDS011;5085;48.092;11.484;2022-12-05T05:48:52;12.88;;;4.53;;
10092;SDS011;5085;48.092;11.484;2022-12-05T05:51:19;9.95;;;4.65;;
10092;SDS011;5085;48.092;11.484;2022-12-05T05:53:46;11.65;;;5.68;;
10092;SDS011;5085;48.092;11.484;2022-12-05T05:56:13;12.60;;;5.55;;
10092;SDS011;5085;48.092;11.484;2022-12-05T05:58:42;10.05;;;4.78;;
10092;SDS011;5085;48.092;11.484;2022-12-05T06:01:12;10.57;;;5.40;;
10092;SDS011;5085;48.092;11.484;2022-12-05T06:03:40;9.80;;;4.40;;
10092;SDS011;5085;48.092;11.484;2022-12-05T06:06:07;11.52;;;5.22;;
10092;SDS011;5085;48.092;11.484;2022-12-05T06:08:36;13.20;;;4.90;;
10092;SDS011;5085;48.092;11.484;2022-12-05T06:11:06;13.93;;;5.53;;
10092;SDS011;5085;48.092;11.484;2022-12-05T06:13:34;12.57;;;4.32;;
10092;SDS011;5085;48.092;11.484;2022-12-05T06:16:00;10.45;;;5.13;;
10092;SDS011;5085;48.092;11.484;2022-12-05T06:18:26;13.38;;;5.30;;
10092;SDS011;5085;48.092;11.484;2022-12-05T06:20:53;14.15;;;5.07;;
10092;SDS011;5085;48.092;11.484;2022-12-05T06:23:20;9.48;;;3.65;;
10092;SDS011;5085;48.092;11.484;2022-12-05T06:25:47;12.93;;;4.82;;
10092;SDS011;5085;48.092;11.484;2022-12-05T06:28:14;10.82;;;4.78;;
10092;SDS011;5085;48.092;11.484;2022-12-05T06:30:41;11.73;;;4.65;;
10092;SDS011;5085;48.092;11.484;2022-12-05T06:33:07;9.88;;;4.75;;
10092;SDS011;5085;48.092;11.484;2022-12-05T06:35:33;9.50;;;4.35;;
10092;SDS011;5085;48.092;11.484;2022-12-05T06:37:59;9.20;;;4.65;;
10092;SDS011;5085;48.092;11.484;2022-12-05T06:40:26;8.43;;;4.72;;
10092;SDS011;5085;48.092;11.484;2022-12-05T06:42:52;10.00;;;4.95;;
10092;SDS011;5085;48.092;11.484;2022-12-05T06:45:18;12.70;;;5.18;;
10092;SDS011;5085;48.092;11.484;2022-12-05T06:47:44;10.98;;;4.85;;
10092;SDS011;5085;48.092;11.484;2022-12-05T06:50:10;14.45;;;5.05;;
10092;SDS011;5085;48.092;11.484;2022-12-05T06:52:36;10.65;;;4.47;;
10092;SDS011;5085;48.092;11.484;2022-12-05T06:55:02;9.57;;;4.50;;
10092;SDS011;5085;48.092;11.484;2022-12-05T06:57:28;13.38;;;4.97;;
10092;SDS011;5085;48.092;11.484;2022-12-05T06:59:54;9.27;;;4.97;;
10092;SDS011;5085;48.092;11.484;2022-12-05T07:02:40;9.70;;;4.85;;
10092;SDS011;5085;48.092;11.484;2022-12-05T07:05:07;8.68;;;3.70;;
10092;SDS011;5085;48.092;11.484;2022-12-05T07:07:33;13.55;;;5.60;;
10092;SDS011;5085;48.092;11.484;2022-12-05T07:10:00;10.07;;;4.93;;
10092;SDS011;5085;48.092;11.484;2022-12-05T07:12:26;13.13;;;4.28;;
10092;SDS011;5085;48.092;11.484;2022-12-05T07:14:52;9.88;;;5.13;;
10092;SDS011;5085;48.092;11.484;2022-12-05T07:17:18;9.60;;;4.82;;
10092;SDS011;5085;48.092;11.484;2022-12-05T07:19:46;10.35;;;4.93;;
10092;SDS011;5085;48.092;11.484;2022-12-05T07:22:14;11.25;;;5.03;;
10092;SDS011;5085;48.092;11.484;2022-12-05T07:24:40;9.63;;;4.68;;
10092;SDS011;5085;48.092;11.484;2022-12-05T07:27:07;11.25;;;4.50;;
10092;SDS011;5085;48.092;11.484;2022-12-05T07:29:33;10.45;;;4.65;;
10092;SDS011;5085;48.092;11.484;2022-12-05T07:31:59;12.00;;;5.18;;
10092;SDS011;5085;48.092;11.484;2022-12-05T07:34:25;12.40;;;4.60;;
10092;SDS011;5085;48.092;11.484;2022-12-05T07:36:51;9.27;;;3.67;;
10092;SDS011;5085;48.092;11.484;2022-12-05T07:39:17;10.73;;;4.57;;
10092;SDS011;5085;48.092;11.484;2022-12-05T07:41:43;8.32;;;4.20;;
10092;SDS011;5085;48.092;11.484;2022-12-05T07:44:13;10.07;;;4.85;;
10092;SDS011;5085;48.092;11.484;2022-12-05T07:46:39;10.00;;;5.65;;
10092;SDS011;5085;48.092;11.484;2022-12-05T07:49:05;10.20;;;4.35;;
10092;SDS011;5085;48.092;11.484;2022-12-05T07:51:32;11.30;;;4.65;;
10092;SDS011;5085;48.092;11.484;2022-12-05T07:53:58;9.35;;;4.65;;
10092;SDS011;5085;48.092;11.484;2022-12-05T07:56:24;10.85;;;4.72;;
10092;SDS011;5085;48.092;11.484;2022-12-05T07:58:50;11.50;;;5.03;;
10092;SDS011;5085;48.092;11.484;2022-12-05T08:01:21;7.32;;;3.97;;
10092;SDS011;5085;48.092;11.484;2022-12-05T08:03:49;9.80;;;4.32;;
10092;SDS011;5085;48.092;11.484;2022-12-05T08:06:18;8.13;;;3.92;;
10092;SDS011;5085;48.092;11.484;2022-12-05T08:08:46;10.20;;;4.45;;
10092;SDS011;5085;48.092;11.484;2022-12-05T08:11:15;8.57;;;4.28;;
10092;SDS011;5085;48.092;11.484;2022-12-05T08:13:43;8.90;;;4.40;;
10092;SDS011;5085;48.092;11.484;2022-12-05T08:16:11;9.75;;;4.53;;
10092;SDS011;5085;48.092;11.484;2022-12-05T08:18:38;10.65;;;5.50;;
10092;SDS011;5085;48.092;11.484;2022-12-05T08:21:05;9.65;;;4.53;;
10092;SDS011;5085;48.092;11.484;2022-12-05T08:23:33;9.48;;;3.75;;
10092;SDS011;5085;48.092;11.484;2022-12-05T08:26:34;8.30;;;4.15;;
10092;SDS011;5085;48.092;11.484;2022-12-05T08:28:53;9.85;;;4.00;;
10092;SDS011;5085;48.092;11.484;2022-12-05T08:31:22;7.18;;;4.20;;
10092;SDS011;5085;48.092;11.484;2022-12-05T08:33:49;9.80;;;4.80;;
10092;SDS011;5085;48.092;11.484;2022-12-05T08:36:16;12.05;;;4.47;;
10092;SDS011;5085;48.092;11.484;2022-12-05T08:38:44;9.75;;;5.35;;
10092;SDS011;5085;48.092;11.484;2022-12-05T08:41:11;8.93;;;4.57;;
10092;SDS011;5085;48.092;11.484;2022-12-05T08:43:39;9.35;;;4.22;;
10092;SDS011;5085;48.092;11.484;2022-12-05T08:46:05;9.10;;;4.70;;
10092;SDS011;5085;48.092;11.484;2022-12-05T08:48:33;10.68;;;5.05;;
10092;SDS011;5085;48.092;11.484;2022-12-05T08:51:03;7.03;;;3.97;;
10092;SDS011;5085;48.092;11.484;2022-12-05T08:53:30;8.23;;;4.63;;
10092;SDS011;5085;48.092;11.484;2022-12-05T08:56:00;9.23;;;4.15;;
10092;SDS011;5085;48.092;11.484;2022-12-05T08:58:27;8.35;;;3.67;;
10092;SDS011;5085;48.092;11.484;2022-12-05T09:00:54;11.93;;;4.50;;
10092;SDS011;5085;48.092;11.484;2022-12-05T09:03:20;8.82;;;4.00;;
10092;SDS011;5085;48.092;11.484;2022-12-05T09:05:46;9.13;;;4.32;;
10092;SDS011;5085;48.092;11.484;2022-12-05T09:08:12;8.15;;;4.55;;
10092;SDS011;5085;48.092;11.484;2022-12-05T09:10:38;9.13;;;4.43;;
10092;SDS011;5085;48.092;11.484;2022-12-05T09:13:04;8.50;;;4.03;;
10092;SDS011;5085;48.092;11.484;2022-12-05T09:15:30;8.93;;;4.70;;
10092;SDS011;5085;48.092;11.484;2022-12-05T09:17:56;7.88;;;5.00;;
10092;SDS011;5085;48.092;11.484;2022-12-05T09:20:22;8.73;;;4.30;;
10092;SDS011;5085;48.092;11.484;2022-12-05T09:22:48;7.95;;;3.72;;
10092;SDS011;5085;48.092;11.484;2022-12-05T09:25:14;9.20;;;4.28;;
10092;SDS011;5085;48.092;11.484;2022-12-05T09:27:40;7.78;;;3.97;;
10092;SDS011;5085;48.092;11.484;2022-12-05T09:30:06;11.73;;;4.57;;
10092;SDS011;5085;48.092;11.484;2022-12-05T09:32:33;9.75;;;4.53;;
10092;SDS011;5085;48.092;11.484;2022-12-05T09:34:59;10.93;;;4.93;;
10092;SDS011;5085;48.092;11.484;2022-12-05T09:37:25;9.15;;;4.32;;
10092;SDS011;5085;48.092;11.484;2022-12-05T09:39:51;8.32;;;4.05;;
10092;SDS011;5085;48.092;11.484;2022-12-05T09:47:54;8.73;;;4.70;;
10092;SDS011;5085;48.092;11.484;2022-12-05T09:50:42;9.82;;;3.95;;
10092;SDS011;5085;48.092;11.484;2022-12-05T09:58:42;8.60;;;4.00;;
10092;SDS011;5085;48.092;11.484;2022-12-05T10:04:10;6.28;;;3.63;;
10092;SDS011;5085;48.092;11.484;2022-12-05T10:12:44;9.15;;;4.20;;
10092;SDS011;5085;48.092;11.484;2022-12-05T10:25:51;8.55;;;4.18;;
10092;SDS011;5085;48.092;11.484;2022-12-05T10:28:27;7.50;;;3.75;;
10092;SDS011;5085;48.092;11.484;2022-12-05T10:30:59;7.50;;;3.95;;
10092;SDS011;5085;48.092;11.484;2022-12-05T10:33:32;9.63;;;4.78;;
10092;SDS011;5085;48.092;11.484;2022-12-05T10:36:08;8.93;;;4.07;;
10092;SDS011;5085;48.092;11.484;2022-12-05T10:38:35;8.73;;;4.60;;
10092;SDS011;5085;48.092;11.484;2022-12-05T10:41:05;11.10;;;4.63;;
10092;SDS011;5085;48.092;11.484;2022-12-05T10:43:33;9.90;;;4.38;;
10092;SDS011;5085;48.092;11.484;2022-12-05T10:46:02;11.48;;;4.60;;
10092;SDS011;5085;48.092;11.484;2022-12-05T10:48:29;8.50;;;4.28;;
10092;SDS011;5085;48.092;11.484;2022-12-05T10:51:01;9.32;;;4.97;;
10092;SDS011;5085;48.092;11.484;2022-12-05T10:53:30;13.13;;;5.88;;
10092;SDS011;5085;48.092;11.484;2022-12-05T10:59:14;10.43;;;4.35;;
10092;SDS011;5085;48.092;11.484;2022-12-05T11:01:46;7.85;;;3.63;;
10092;SDS011;5085;48.092;11.484;2022-12-05T11:04:40;9.13;;;4.30;;
10092;SDS011;5085;48.092;11.484;2022-12-05T11:07:09;9.50;;;4.93;;
10092;SDS011;5085;48.092;11.484;2022-12-05T11:10:20;10.15;;;4.18;;
10092;SDS011;5085;48.092;11.484;2022-12-05T11:12:58;9.65;;;4.55;;
10092;SDS011;5085;48.092;11.484;2022-12-05T11:15:26;7.82;;;4.18;;
10092;SDS011;5085;48.092;11.484;2022-12-05T11:17:58;9.48;;;4.72;;
10092;SDS011;5085;48.092;11.484;2022-12-05T11:20:53;7.10;;;3.60;;
10092;SDS011;5085;48.092;11.484;2022-12-05T11:23:24;7.57;;;3.50;;
10092;SDS011;5085;48.092;11.484;2022-12-05T11:25:55;9.80;;;4.32;;
10092;SDS011;5085;48.092;11.484;2022-12-05T11:28:24;9.35;;;4.68;;
10092;SDS011;5085;48.092;11.484;2022-12-05T11:30:56;10.20;;;4.47;;
10092;SDS011;5085;48.092;11.484;2022-12-05T11:33:28;11.52;;;4.90;;
10092;SDS011;5085;48.092;11.484;2022-12-05T11:35:58;9.30;;;4.10;;
10092;SDS011;5085;48.092;11.484;2022-12-05T11:38:29;8.52;;;4.10;;
10092;SDS011;5085;48.092;11.484;2022-12-05T11:46:47;8.68;;;3.85;;
10092;SDS011;5085;48.092;11.484;2022-12-05T11:55:02;8.35;;;3.88;;
10092;SDS011;5085;48.092;11.484;2022-12-05T12:03:23;6.95;;;3.58;;
10092;SDS011;5085;48.092;11.484;2022-12-05T12:11:26;7.75;;;3.38;;
10092;SDS011;5085;48.092;11.484;2022-12-05T12:22:38;7.18;;;3.40;;
10092;SDS011;5085;48.092;11.484;2022-12-05T12:28:02;10.50;;;5.22;;
10092;SDS011;5085;48.092;11.484;2022-12-05T12:30:45;6.65;;;3.13;;
10092;SDS011;5085;48.092;11.484;2022-12-05T12:33:26;5.93;;;3.28;;
10092;SDS011;5085;48.092;11.484;2022-12-05T12:36:08;8.60;;;3.08;;
10092;SDS011;5085;48.092;11.484;2022-12-05T12:38:50;6.88;;;2.83;;
10092;SDS011;5085;48.092;11.484;2022-12-05T12:44:24;5.38;;;3.38;;
10092;SDS011;5085;48.092;11.484;2022-12-05T12:49:48;5.85;;;3.28;;
10092;SDS011;5085;48.092;11.484;2022-12-05T12:52:20;6.18;;;2.65;;
10092;SDS011;5085;48.092;11.484;2022-12-05T12:54:57;5.78;;;2.72;;
10092;SDS011;5085;48.092;11.484;2022-12-05T13:03:05;5.18;;;2.35;;
10092;SDS011;5085;48.092;11.484;2022-12-05T13:05:40;4.90;;;2.45;;
10092;SDS011;5085;48.092;11.484;2022-12-05T13:08:20;5.25;;;2.92;;
10092;SDS011;5085;48.092;11.484;2022-12-05T13:10:51;4.45;;;1.83;;
10092;SDS011;5085;48.092;11.484;2022-12-05T13:13:20;4.72;;;2.22;;
10092;SDS011;5085;48.092;11.484;2022-12-05T13:15:52;5.63;;;2.30;;
10092;SDS011;5085;48.092;11.484;2022-12-05T13:18:22;4.05;;;1.85;;
10092;SDS011;5085;48.092;11.484;2022-12-05T13:20:51;3.22;;;1.65;;
10092;SDS011;5085;48.092;11.484;2022-12-05T13:23:35;2.67;;;1.25;;
10092;SDS011;5085;48.092;11.484;2022-12-05T13:26:10;2.42;;;1.10;;
10092;SDS011;5085;48.092;11.484;2022-12-05T13:28:51;3.30;;;1.25;;
10092;SDS011;5085;48.092;11.484;2022-12-05T13:31:39;3.00;;;1.25;;
10092;SDS011;5085;48.092;11.484;2022-12-05T13:37:16;3.47;;;1.50;;
10092;SDS011;5085;48.092;11.484;2022-12-05T13:40:03;2.47;;;1.08;;
10092;SDS011;5085;48.092;11.484;2022-12-05T13:42:58;3.53;;;1.42;;
10092;SDS011;5085;48.092;11.484;2022-12-05T13:45:28;5.32;;;1.83;;
10092;SDS011;5085;48.092;11.484;2022-12-05T13:50:27;4.07;;;1.60;;
10092;SDS011;5085;48.092;11.484;2022-12-05T13:53:05;4.18;;;1.42;;
10092;SDS011;5085;48.092;11.484;2022-12-05T13:56:02;3.30;;;1.48;;
10092;SDS011;5085;48.092;11.484;2022-12-05T13:58:52;3.28;;;1.48;;
10092;SDS011;5085;48.092;11.484;2022-12-05T14:09:26;3.85;;;1.42;;
10092;SDS011;5085;48.092;11.484;2022-12-05T14:17:21;4.82;;;1.73;;
10092;SDS011;5085;48.092;11.484;2022-12-05T14:19:56;3.97;;;1.63;;
10092;SDS011;5085;48.092;11.484;2022-12-05T14:22:36;3.00;;;1.50;;
10092;SDS011;5085;48.092;11.484;2022-12-05T14:30:56;6.30;;;1.95;;
10092;SDS011;5085;48.092;11.484;2022-12-05T14:33:30;7.13;;;2.90;;
10092;SDS011;5085;48.092;11.484;2022-12-05T14:35:57;8.60;;;3.75;;
10092;SDS011;5085;48.092;11.484;2022-12-05T14:38:32;4.53;;;2.13;;
10092;SDS011;5085;48.092;11.484;2022-12-05T14:41:22;4.18;;;2.03;;
10092;SDS011;5085;48.092;11.484;2022-12-05T14:43:54;3.35;;;1.63;;
10092;SDS011;5085;48.092;11.484;2022-12-05T14:46:26;3.67;;;1.45;;
10092;SDS011;5085;48.092;11.484;2022-12-05T14:48:54;2.83;;;1.60;;
10092;SDS011;5085;48.092;11.484;2022-12-05T14:53:56;4.03;;;1.75;;
10092;SDS011;5085;48.092;11.484;2022-12-05T14:56:29;4.63;;;2.33;;
10092;SDS011;5085;48.092;11.484;2022-12-05T15:04:37;3.67;;;1.67;;
10092;SDS011;5085;48.092;11.484;2022-12-05T15:07:11;4.07;;;1.80;;
10092;SDS011;5085;48.092;11.484;2022-12-05T15:12:27;4.22;;;2.08;;
10092;SDS011;5085;48.092;11.484;2022-12-05T15:15:02;3.08;;;1.65;;
10092;SDS011;5085;48.092;11.484;2022-12-05T15:17:53;3.10;;;1.55;;
10092;SDS011;5085;48.092;11.484;2022-12-05T15:26:18;5.07;;;2.50;;
10092;SDS011;5085;48.092;11.484;2022-12-05T15:31:39;4.03;;;1.67;;
10092;SDS011;5085;48.092;11.484;2022-12-05T15:36:49;2.42;;;1.15;;
10092;SDS011;5085;48.092;11.484;2022-12-05T15:39:23;3.20;;;1.35;;
10092;SDS011;5085;48.092;11.484;2022-12-05T15:41:51;2.10;;;1.10;;
10092;SDS011;5085;48.092;11.484;2022-12-05T15:44:18;3.30;;;1.77;;
10092;SDS011;5085;48.092;11.484;2022-12-05T15:46:52;3.80;;;1.20;;
10092;SDS011;5085;48.092;11.484;2022-12-05T15:49:21;2.38;;;1.52;;
10092;SDS011;5085;48.092;11.484;2022-12-05T15:52:06;3.78;;;1.42;;
10092;SDS011;5085;48.092;11.484;2022-12-05T15:54:42;5.45;;;2.30;;
10092;SDS011;5085;48.092;11.484;2022-12-05T15:57:12;8.98;;;3.28;;
10092;SDS011;5085;48.092;11.484;2022-12-05T15:59:45;7.35;;;3.42;;
10092;SDS011;5085;48.092;11.484;2022-12-05T16:02:22;5.32;;;2.55;;
10092;SDS011;5085;48.092;11.484;2022-12-05T16:06:00;3.58;;;2.15;;
10092;SDS011;5085;48.092;11.484;2022-12-05T16:08:12;5.72;;;1.80;;
10092;SDS011;5085;48.092;11.484;2022-12-05T16:10:38;2.83;;;1.52;;
10092;SDS011;5085;48.092;11.484;2022-12-05T16:13:05;2.67;;;1.30;;
10092;SDS011;5085;48.092;11.484;2022-12-05T16:15:37;2.53;;;1.30;;
10092;SDS011;5085;48.092;11.484;2022-12-05T16:18:21;3.20;;;1.63;;
10092;SDS011;5085;48.092;11.484;2022-12-05T16:20:51;3.40;;;1.33;;
10092;SDS011;5085;48.092;11.484;2022-12-05T16:23:30;2.72;;;1.05;;
10092;SDS011;5085;48.092;11.484;2022-12-05T16:28:56;2.58;;;1.02;;
10092;SDS011;5085;48.092;11.484;2022-12-05T16:31:23;2.45;;;1.27;;
10092;SDS011;5085;48.092;11.484;2022-12-05T16:33:58;1.95;;;1.10;;
10092;SDS011;5085;48.092;11.484;2022-12-05T16:36:26;3.42;;;1.13;;
10092;SDS011;5085;48.092;11.484;2022-12-05T16:39:02;2.53;;;1.02;;
10092;SDS011;5085;48.092;11.484;2022-12-05T16:41:34;1.77;;;1.10;;
10092;SDS011;5085;48.092;11.484;2022-12-05T16:44:03;1.73;;;0.98;;
10092;SDS011;5085;48.092;11.484;2022-12-05T16:46:39;3.45;;;1.30;;
10092;SDS011;5085;48.092;11.484;2022-12-05T16:54:33;6.47;;;1.50;;
10092;SDS011;5085;48.092;11.484;2022-12-05T16:57:00;4.15;;;1.45;;
10092;SDS011;5085;48.092;11.484;2022-12-05T16:59:31;3.33;;;1.52;;
10092;SDS011;5085;48.092;11.484;2022-12-05T17:01:59;3.05;;;1.40;;
10092;SDS011;5085;48.092;11.484;2022-12-05T17:04:27;2.97;;;1.05;;
10092;SDS011;5085;48.092;11.484;2022-12-05T17:06:53;2.00;;;0.77;;
10092;SDS011;5085;48.092;11.484;2022-12-05T17:09:19;2.90;;;1.40;;
10092;SDS011;5085;48.092;11.484;2022-12-05T17:11:46;2.25;;;1.13;;
10092;SDS011;5085;48.092;11.484;2022-12-05T17:14:16;2.65;;;0.98;;
10092;SDS011;5085;48.092;11.484;2022-12-05T17:16:43;3.00;;;1.02;;
10092;SDS011;5085;48.092;11.484;2022-12-05T17:19:12;1.88;;;1.00;;
10092;SDS011;5085;48.092;11.484;2022-12-05T17:21:39;2.55;;;1.23;;
10092;SDS011;5085;48.092;11.484;2022-12-05T17:24:11;2.10;;;1.02;;
10092;SDS011;5085;48.092;11.484;2022-12-05T17:26:40;2.67;;;1.33;;
10092;SDS011;5085;48.092;11.484;2022-12-05T17:29:06;4.28;;;1.30;;
10092;SDS011;5085;48.092;11.484;2022-12-05T17:31:33;1.92;;;0.85;;
10092;SDS011;5085;48.092;11.484;2022-12-05T17:34:00;2.15;;;1.00;;
10092;SDS011;5085;48.092;11.484;2022-12-05T17:36:26;2.08;;;1.08;;
10092;SDS011;5085;48.092;11.484;2022-12-05T17:38:52;2.28;;;1.05;;
10092;SDS011;5085;48.092;11.484;2022-12-05T17:41:19;4.50;;;1.38;;
10092;SDS011;5085;48.092;11.484;2022-12-05T17:43:47;3.55;;;1.60;;
10092;SDS011;5085;48.092;11.484;2022-12-05T17:46:15;1.73;;;1.05;;